Terminal Aerodrome Forecast
Issued by NWS Wilmington, OH

Current Version | Previous Version | Text Only | Print | Product List | Glossary Off
Versions: 1 2 3 4 5 6 7 8 9 10 11 12 13 14 15 16 17 18

000
FTUS41 KILN 201951 AAB
TAFILN
TAF AMD
KILN 201951Z 2020/2118 19010KT P6SM OVC050
      TEMPO 2020/2021 3SM -TSRA BR OVC025CB
     FM202100 18009KT 4SM -TSRA BR OVC035CB
     FM210200 VRB03KT 4SM -SHRA BR OVC015
     FM210400 36005KT 4SM BR OVC007
     FM211200 35009KT 5SM BR OVC015=

USA.gov is the U.S. government's official web portal to all federal, state and local government web resources and services.